sensor_id;sensor_type;location;lat;lon;timestamp;P1;durP1;ratioP1;P2;durP2;ratioP2
26391;SDS011;14572;43.120;1.178;2023-03-03T12:45:34;32.35;;;18.45;;
26391;SDS011;14572;43.120;1.178;2023-03-03T12:48:07;35.17;;;19.42;;
26391;SDS011;14572;43.120;1.178;2023-03-03T12:50:39;35.00;;;19.60;;
26391;SDS011;14572;43.120;1.178;2023-03-03T12:53:13;35.70;;;19.55;;
26391;SDS011;14572;43.120;1.178;2023-03-03T12:55:48;31.23;;;18.98;;
26391;SDS011;14572;43.120;1.178;2023-03-03T12:58:23;33.28;;;19.35;;
26391;SDS011;14572;43.120;1.178;2023-03-03T13:01:00;32.28;;;18.83;;
26391;SDS011;14572;43.120;1.178;2023-03-03T13:03:35;31.77;;;18.73;;
26391;SDS011;14572;43.120;1.178;2023-03-03T13:06:06;35.70;;;19.10;;
26391;SDS011;14572;43.120;1.178;2023-03-03T13:08:44;31.33;;;19.17;;
26391;SDS011;14572;43.120;1.178;2023-03-03T13:11:22;38.08;;;21.65;;
26391;SDS011;14572;43.120;1.178;2023-03-03T13:13:57;35.10;;;20.30;;
26391;SDS011;14572;43.120;1.178;2023-03-03T13:16:28;35.58;;;21.42;;
26391;SDS011;14572;43.120;1.178;2023-03-03T13:18:59;35.00;;;20.98;;
26391;SDS011;14572;43.120;1.178;2023-03-03T13:21:29;35.10;;;20.80;;
26391;SDS011;14572;43.120;1.178;2023-03-03T13:24:02;35.17;;;20.52;;
26391;SDS011;14572;43.120;1.178;2023-03-03T13:26:34;32.70;;;19.70;;
26391;SDS011;14572;43.120;1.178;2023-03-03T13:29:04;32.65;;;19.00;;
26391;SDS011;14572;43.120;1.178;2023-03-03T13:31:44;35.08;;;19.55;;
26391;SDS011;14572;43.120;1.178;2023-03-03T13:34:16;33.22;;;19.58;;
26391;SDS011;14572;43.120;1.178;2023-03-03T13:36:50;33.33;;;19.23;;
26391;SDS011;14572;43.120;1.178;2023-03-03T13:39:22;33.03;;;20.08;;
26391;SDS011;14572;43.120;1.178;2023-03-03T13:41:52;36.63;;;20.85;;
26391;SDS011;14572;43.120;1.178;2023-03-03T13:44:23;32.30;;;18.83;;
26391;SDS011;14572;43.120;1.178;2023-03-03T13:46:57;36.08;;;19.65;;
26391;SDS011;14572;43.120;1.178;2023-03-03T13:49:35;35.83;;;19.48;;
26391;SDS011;14572;43.120;1.178;2023-03-03T13:52:12;36.33;;;19.80;;
26391;SDS011;14572;43.120;1.178;2023-03-03T13:54:52;40.03;;;20.13;;
26391;SDS011;14572;43.120;1.178;2023-03-03T13:57:38;34.50;;;20.20;;
26391;SDS011;14572;43.120;1.178;2023-03-03T14:00:25;32.65;;;17.70;;
26391;SDS011;14572;43.120;1.178;2023-03-03T14:03:10;32.90;;;18.85;;
26391;SDS011;14572;43.120;1.178;2023-03-03T14:05:55;36.80;;;20.25;;
26391;SDS011;14572;43.120;1.178;2023-03-03T14:08:33;32.50;;;18.02;;
26391;SDS011;14572;43.120;1.178;2023-03-03T14:11:16;29.70;;;18.38;;
26391;SDS011;14572;43.120;1.178;2023-03-03T14:13:48;29.70;;;17.15;;
26391;SDS011;14572;43.120;1.178;2023-03-03T14:16:29;29.40;;;17.58;;
26391;SDS011;14572;43.120;1.178;2023-03-03T14:19:06;29.45;;;17.60;;
26391;SDS011;14572;43.120;1.178;2023-03-03T14:21:39;27.40;;;17.75;;
26391;SDS011;14572;43.120;1.178;2023-03-03T14:24:12;31.42;;;18.35;;
26391;SDS011;14572;43.120;1.178;2023-03-03T14:26:45;26.45;;;16.20;;
26391;SDS011;14572;43.120;1.178;2023-03-03T14:29:21;30.00;;;16.67;;
26391;SDS011;14572;43.120;1.178;2023-03-03T14:35:18;26.08;;;15.73;;
26391;SDS011;14572;43.120;1.178;2023-03-03T14:37:46;25.95;;;16.13;;
26391;SDS011;14572;43.120;1.178;2023-03-03T14:40:17;27.42;;;16.35;;
26391;SDS011;14572;43.120;1.178;2023-03-03T14:42:46;59.33;;;26.58;;
26391;SDS011;14572;43.120;1.178;2023-03-03T14:45:19;30.52;;;16.73;;
26391;SDS011;14572;43.120;1.178;2023-03-03T14:47:49;47.65;;;22.38;;
26391;SDS011;14572;43.120;1.178;2023-03-03T14:50:38;33.65;;;18.48;;
26391;SDS011;14572;43.120;1.178;2023-03-03T14:53:10;34.58;;;18.63;;
26391;SDS011;14572;43.120;1.178;2023-03-03T14:55:40;31.90;;;18.98;;
26391;SDS011;14572;43.120;1.178;2023-03-03T14:58:29;32.80;;;18.52;;
26391;SDS011;14572;43.120;1.178;2023-03-03T15:01:08;33.92;;;19.65;;
26391;SDS011;14572;43.120;1.178;2023-03-03T15:03:43;32.95;;;18.13;;
26391;SDS011;14572;43.120;1.178;2023-03-03T15:06:13;33.13;;;18.35;;
26391;SDS011;14572;43.120;1.178;2023-03-03T15:11:49;32.97;;;20.15;;
26391;SDS011;14572;43.120;1.178;2023-03-03T15:14:18;33.20;;;19.63;;
26391;SDS011;14572;43.120;1.178;2023-03-03T15:16:45;33.33;;;19.67;;
26391;SDS011;14572;43.120;1.178;2023-03-03T15:22:09;37.42;;;20.83;;
26391;SDS011;14572;43.120;1.178;2023-03-03T15:24:44;38.15;;;19.45;;
26391;SDS011;14572;43.120;1.178;2023-03-03T15:27:17;35.97;;;21.88;;
26391;SDS011;14572;43.120;1.178;2023-03-03T15:29:51;32.92;;;19.33;;
26391;SDS011;14572;43.120;1.178;2023-03-03T15:32:26;34.03;;;19.25;;
26391;SDS011;14572;43.120;1.178;2023-03-03T15:34:56;33.17;;;19.92;;
26391;SDS011;14572;43.120;1.178;2023-03-03T15:37:34;36.90;;;18.08;;
26391;SDS011;14572;43.120;1.178;2023-03-03T15:40:09;33.40;;;20.02;;
26391;SDS011;14572;43.120;1.178;2023-03-03T15:42:41;34.15;;;18.85;;
26391;SDS011;14572;43.120;1.178;2023-03-03T15:45:14;30.77;;;17.88;;
26391;SDS011;14572;43.120;1.178;2023-03-03T15:47:54;31.40;;;17.92;;
26391;SDS011;14572;43.120;1.178;2023-03-03T15:50:31;29.92;;;17.45;;
26391;SDS011;14572;43.120;1.178;2023-03-03T15:53:10;26.15;;;16.73;;
26391;SDS011;14572;43.120;1.178;2023-03-03T15:55:48;27.33;;;16.00;;
26391;SDS011;14572;43.120;1.178;2023-03-03T15:58:29;26.88;;;15.27;;
26391;SDS011;14572;43.120;1.178;2023-03-03T16:01:06;33.15;;;18.15;;
26391;SDS011;14572;43.120;1.178;2023-03-03T16:03:45;27.05;;;16.73;;
26391;SDS011;14572;43.120;1.178;2023-03-03T16:06:14;29.65;;;17.55;;
26391;SDS011;14572;43.120;1.178;2023-03-03T16:08:47;34.22;;;18.70;;
26391;SDS011;14572;43.120;1.178;2023-03-03T16:11:19;29.20;;;18.50;;
26391;SDS011;14572;43.120;1.178;2023-03-03T16:13:53;35.25;;;18.17;;
26391;SDS011;14572;43.120;1.178;2023-03-03T16:16:30;36.55;;;19.45;;
26391;SDS011;14572;43.120;1.178;2023-03-03T16:19:04;34.45;;;18.45;;
26391;SDS011;14572;43.120;1.178;2023-03-03T16:21:45;33.67;;;19.05;;
26391;SDS011;14572;43.120;1.178;2023-03-03T16:24:31;32.85;;;18.73;;
26391;SDS011;14572;43.120;1.178;2023-03-03T16:27:08;32.00;;;18.45;;
26391;SDS011;14572;43.120;1.178;2023-03-03T16:29:46;36.55;;;19.98;;
26391;SDS011;14572;43.120;1.178;2023-03-03T16:32:23;33.60;;;18.55;;
26391;SDS011;14572;43.120;1.178;2023-03-03T16:34:54;27.95;;;16.98;;
26391;SDS011;14572;43.120;1.178;2023-03-03T16:37:25;28.60;;;17.10;;
26391;SDS011;14572;43.120;1.178;2023-03-03T16:39:58;27.02;;;17.27;;
26391;SDS011;14572;43.120;1.178;2023-03-03T16:42:29;29.02;;;16.58;;
26391;SDS011;14572;43.120;1.178;2023-03-03T16:44:59;33.33;;;17.20;;
26391;SDS011;14572;43.120;1.178;2023-03-03T16:47:36;31.15;;;17.45;;
26391;SDS011;14572;43.120;1.178;2023-03-03T16:50:11;32.88;;;17.45;;
26391;SDS011;14572;43.120;1.178;2023-03-03T16:52:44;30.52;;;17.50;;
26391;SDS011;14572;43.120;1.178;2023-03-03T16:55:16;29.60;;;17.23;;
26391;SDS011;14572;43.120;1.178;2023-03-03T16:57:48;30.80;;;17.45;;
26391;SDS011;14572;43.120;1.178;2023-03-03T17:00:22;29.10;;;16.33;;
26391;SDS011;14572;43.120;1.178;2023-03-03T17:05:54;28.27;;;15.93;;
26391;SDS011;14572;43.120;1.178;2023-03-03T17:11:23;25.90;;;15.00;;
26391;SDS011;14572;43.120;1.178;2023-03-03T17:16:47;27.67;;;15.00;;
26391;SDS011;14572;43.120;1.178;2023-03-03T17:19:24;29.23;;;15.07;;
26391;SDS011;14572;43.120;1.178;2023-03-03T17:22:01;29.13;;;16.60;;
26391;SDS011;14572;43.120;1.178;2023-03-03T17:24:36;27.35;;;15.48;;
26391;SDS011;14572;43.120;1.178;2023-03-03T17:27:10;30.38;;;15.88;;
26391;SDS011;14572;43.120;1.178;2023-03-03T17:29:46;26.98;;;16.00;;
26391;SDS011;14572;43.120;1.178;2023-03-03T17:32:21;32.00;;;15.95;;
26391;SDS011;14572;43.120;1.178;2023-03-03T17:35:04;28.50;;;15.73;;
26391;SDS011;14572;43.120;1.178;2023-03-03T17:37:37;30.23;;;16.08;;
26391;SDS011;14572;43.120;1.178;2023-03-03T17:40:14;26.02;;;15.50;;
26391;SDS011;14572;43.120;1.178;2023-03-03T17:42:50;24.15;;;14.73;;
26391;SDS011;14572;43.120;1.178;2023-03-03T17:45:20;28.65;;;15.32;;
26391;SDS011;14572;43.120;1.178;2023-03-03T17:47:52;28.77;;;16.05;;
26391;SDS011;14572;43.120;1.178;2023-03-03T17:50:42;27.75;;;14.88;;
26391;SDS011;14572;43.120;1.178;2023-03-03T17:53:38;29.95;;;16.45;;
26391;SDS011;14572;43.120;1.178;2023-03-03T17:56:15;29.13;;;15.90;;
26391;SDS011;14572;43.120;1.178;2023-03-03T18:01:34;33.90;;;16.88;;
26391;SDS011;14572;43.120;1.178;2023-03-03T18:07:14;32.85;;;18.30;;
26391;SDS011;14572;43.120;1.178;2023-03-03T18:09:59;32.60;;;16.40;;
26391;SDS011;14572;43.120;1.178;2023-03-03T18:12:44;31.85;;;18.23;;
26391;SDS011;14572;43.120;1.178;2023-03-03T18:15:21;29.30;;;17.10;;
26391;SDS011;14572;43.120;1.178;2023-03-03T18:18:01;32.20;;;16.95;;
26391;SDS011;14572;43.120;1.178;2023-03-03T18:20:32;35.25;;;18.08;;
26391;SDS011;14572;43.120;1.178;2023-03-03T18:23:21;34.15;;;19.08;;
26391;SDS011;14572;43.120;1.178;2023-03-03T18:25:55;38.05;;;19.30;;
26391;SDS011;14572;43.120;1.178;2023-03-03T18:28:34;31.73;;;17.70;;
26391;SDS011;14572;43.120;1.178;2023-03-03T18:31:13;35.28;;;18.17;;
26391;SDS011;14572;43.120;1.178;2023-03-03T18:33:55;33.50;;;17.35;;
26391;SDS011;14572;43.120;1.178;2023-03-03T18:36:35;28.20;;;15.93;;
26391;SDS011;14572;43.120;1.178;2023-03-03T18:39:04;28.30;;;15.85;;
26391;SDS011;14572;43.120;1.178;2023-03-03T18:41:32;24.88;;;14.80;;
26391;SDS011;14572;43.120;1.178;2023-03-03T18:44:01;26.23;;;15.20;;
26391;SDS011;14572;43.120;1.178;2023-03-03T18:46:54;24.40;;;15.10;;
26391;SDS011;14572;43.120;1.178;2023-03-03T18:52:29;29.33;;;16.25;;
26391;SDS011;14572;43.120;1.178;2023-03-03T18:54:59;31.67;;;16.55;;
26391;SDS011;14572;43.120;1.178;2023-03-03T18:57:27;33.53;;;18.27;;
26391;SDS011;14572;43.120;1.178;2023-03-03T18:59:56;28.27;;;15.38;;
26391;SDS011;14572;43.120;1.178;2023-03-03T19:02:32;23.92;;;12.90;;
26391;SDS011;14572;43.120;1.178;2023-03-03T19:05:07;22.92;;;12.65;;
26391;SDS011;14572;43.120;1.178;2023-03-03T19:07:46;26.50;;;14.30;;
26391;SDS011;14572;43.120;1.178;2023-03-03T19:16:26;32.67;;;17.83;;
26391;SDS011;14572;43.120;1.178;2023-03-03T19:19:03;41.05;;;21.60;;
26391;SDS011;14572;43.120;1.178;2023-03-03T19:21:35;36.53;;;19.98;;
26391;SDS011;14572;43.120;1.178;2023-03-03T19:24:03;34.58;;;17.95;;
26391;SDS011;14572;43.120;1.178;2023-03-03T19:26:51;34.97;;;18.98;;
26391;SDS011;14572;43.120;1.178;2023-03-03T19:29:41;32.80;;;16.00;;
26391;SDS011;14572;43.120;1.178;2023-03-03T19:39:00;24.45;;;13.98;;
26391;SDS011;14572;43.120;1.178;2023-03-03T19:41:41;27.08;;;14.68;;
26391;SDS011;14572;43.120;1.178;2023-03-03T19:44:18;28.33;;;16.27;;
26391;SDS011;14572;43.120;1.178;2023-03-03T19:46:54;52.50;;;26.83;;
26391;SDS011;14572;43.120;1.178;2023-03-03T19:49:26;81.25;;;39.35;;
26391;SDS011;14572;43.120;1.178;2023-03-03T19:52:16;89.85;;;44.03;;
26391;SDS011;14572;43.120;1.178;2023-03-03T19:54:51;38.80;;;20.50;;
26391;SDS011;14572;43.120;1.178;2023-03-03T19:57:35;56.65;;;29.23;;
26391;SDS011;14572;43.120;1.178;2023-03-03T20:00:13;47.63;;;24.48;;
26391;SDS011;14572;43.120;1.178;2023-03-03T20:02:46;34.55;;;18.60;;
26391;SDS011;14572;43.120;1.178;2023-03-03T20:05:22;26.33;;;14.23;;
26391;SDS011;14572;43.120;1.178;2023-03-03T20:07:54;23.88;;;13.65;;
26391;SDS011;14572;43.120;1.178;2023-03-03T20:10:32;77.20;;;14.23;;
26391;SDS011;14572;43.120;1.178;2023-03-03T20:13:05;24.10;;;13.77;;
26391;SDS011;14572;43.120;1.178;2023-03-03T20:15:40;22.95;;;12.27;;
26391;SDS011;14572;43.120;1.178;2023-03-03T20:18:25;23.27;;;12.13;;
26391;SDS011;14572;43.120;1.178;2023-03-03T20:21:04;30.02;;;15.07;;
26391;SDS011;14572;43.120;1.178;2023-03-03T20:23:38;24.52;;;13.32;;
